sensor_id;sensor_type;location;lat;lon;timestamp;temperature;humidity
52919;DHT22;38793;52.690;6.812;2023-07-13T00:02:10;15.90;99.90
52919;DHT22;38793;52.690;6.812;2023-07-13T00:04:35;15.80;99.90
52919;DHT22;38793;52.690;6.812;2023-07-13T00:07:01;15.80;99.90
52919;DHT22;38793;52.690;6.812;2023-07-13T00:09:28;15.80;99.90
52919;DHT22;38793;52.690;6.812;2023-07-13T00:11:55;15.80;99.90
52919;DHT22;38793;52.690;6.812;2023-07-13T00:14:22;15.80;99.90
52919;DHT22;38793;52.690;6.812;2023-07-13T00:16:48;15.80;99.90
52919;DHT22;38793;52.690;6.812;2023-07-13T00:19:14;15.80;99.90
52919;DHT22;38793;52.690;6.812;2023-07-13T00:21:40;15.80;99.90
52919;DHT22;38793;52.690;6.812;2023-07-13T00:24:07;15.80;99.90
52919;DHT22;38793;52.690;6.812;2023-07-13T00:26:33;15.80;99.90
52919;DHT22;38793;52.690;6.812;2023-07-13T00:28:59;15.80;99.90
52919;DHT22;38793;52.690;6.812;2023-07-13T00:31:25;15.80;99.90
52919;DHT22;38793;52.690;6.812;2023-07-13T00:33:51;15.80;99.90
52919;DHT22;38793;52.690;6.812;2023-07-13T00:36:17;15.80;99.90
52919;DHT22;38793;52.690;6.812;2023-07-13T00:38:42;15.70;99.90
52919;DHT22;38793;52.690;6.812;2023-07-13T00:41:08;15.70;99.90
52919;DHT22;38793;52.690;6.812;2023-07-13T00:43:34;15.70;99.90
52919;DHT22;38793;52.690;6.812;2023-07-13T00:46:12;15.70;99.90
52919;DHT22;38793;52.690;6.812;2023-07-13T00:48:38;15.60;99.90
52919;DHT22;38793;52.690;6.812;2023-07-13T00:51:04;15.60;99.90
52919;DHT22;38793;52.690;6.812;2023-07-13T00:53:31;15.60;99.90
52919;DHT22;38793;52.690;6.812;2023-07-13T00:55:57;15.50;99.90
52919;DHT22;38793;52.690;6.812;2023-07-13T00:58:25;15.50;99.90
52919;DHT22;38793;52.690;6.812;2023-07-13T01:00:51;15.50;99.90
52919;DHT22;38793;52.690;6.812;2023-07-13T01:03:18;15.50;99.90
52919;DHT22;38793;52.690;6.812;2023-07-13T01:05:47;15.50;99.90
52919;DHT22;38793;52.690;6.812;2023-07-13T01:08:13;15.50;99.90
52919;DHT22;38793;52.690;6.812;2023-07-13T01:10:39;15.50;99.90
52919;DHT22;38793;52.690;6.812;2023-07-13T01:13:10;15.60;99.90
52919;DHT22;38793;52.690;6.812;2023-07-13T01:15:44;15.60;99.90
52919;DHT22;38793;52.690;6.812;2023-07-13T01:18:18;15.60;99.90
52919;DHT22;38793;52.690;6.812;2023-07-13T01:21:00;15.60;99.90
52919;DHT22;38793;52.690;6.812;2023-07-13T01:23:27;15.70;99.90
52919;DHT22;38793;52.690;6.812;2023-07-13T01:25:53;15.70;99.90
52919;DHT22;38793;52.690;6.812;2023-07-13T01:28:19;15.70;99.90
52919;DHT22;38793;52.690;6.812;2023-07-13T01:30:46;15.70;99.90
52919;DHT22;38793;52.690;6.812;2023-07-13T01:33:17;15.70;99.90
52919;DHT22;38793;52.690;6.812;2023-07-13T01:35:44;15.80;99.90
52919;DHT22;38793;52.690;6.812;2023-07-13T01:38:10;15.80;99.90
52919;DHT22;38793;52.690;6.812;2023-07-13T01:40:38;15.80;99.90
52919;DHT22;38793;52.690;6.812;2023-07-13T01:43:04;15.80;99.90
52919;DHT22;38793;52.690;6.812;2023-07-13T01:45:30;15.80;99.90
52919;DHT22;38793;52.690;6.812;2023-07-13T01:47:56;15.80;99.90
52919;DHT22;38793;52.690;6.812;2023-07-13T01:50:21;15.80;99.90
52919;DHT22;38793;52.690;6.812;2023-07-13T01:52:47;15.80;99.90
52919;DHT22;38793;52.690;6.812;2023-07-13T01:55:12;15.80;99.90
52919;DHT22;38793;52.690;6.812;2023-07-13T01:57:39;15.80;99.90
52919;DHT22;38793;52.690;6.812;2023-07-13T02:00:06;15.80;99.90
52919;DHT22;38793;52.690;6.812;2023-07-13T02:02:32;15.80;99.90
52919;DHT22;38793;52.690;6.812;2023-07-13T02:04:58;15.80;99.90
52919;DHT22;38793;52.690;6.812;2023-07-13T02:07:24;15.80;99.90
52919;DHT22;38793;52.690;6.812;2023-07-13T02:09:49;15.80;99.90
52919;DHT22;38793;52.690;6.812;2023-07-13T02:12:15;15.80;99.90
52919;DHT22;38793;52.690;6.812;2023-07-13T02:14:40;15.80;99.90
52919;DHT22;38793;52.690;6.812;2023-07-13T02:17:06;15.80;99.90
52919;DHT22;38793;52.690;6.812;2023-07-13T02:19:32;15.80;99.90
52919;DHT22;38793;52.690;6.812;2023-07-13T02:21:58;15.80;99.90
52919;DHT22;38793;52.690;6.812;2023-07-13T02:24:23;15.80;99.90
52919;DHT22;38793;52.690;6.812;2023-07-13T02:26:49;15.80;99.90
52919;DHT22;38793;52.690;6.812;2023-07-13T02:29:15;15.80;99.90
52919;DHT22;38793;52.690;6.812;2023-07-13T02:31:40;15.70;99.90
52919;DHT22;38793;52.690;6.812;2023-07-13T02:34:06;15.70;99.90
52919;DHT22;38793;52.690;6.812;2023-07-13T02:36:32;15.70;99.90
52919;DHT22;38793;52.690;6.812;2023-07-13T02:39:01;15.70;99.90
52919;DHT22;38793;52.690;6.812;2023-07-13T02:41:26;15.70;99.90
52919;DHT22;38793;52.690;6.812;2023-07-13T02:43:52;15.70;99.90
52919;DHT22;38793;52.690;6.812;2023-07-13T02:46:18;15.60;99.90
52919;DHT22;38793;52.690;6.812;2023-07-13T02:48:45;15.60;99.90
52919;DHT22;38793;52.690;6.812;2023-07-13T02:51:11;15.70;99.90
52919;DHT22;38793;52.690;6.812;2023-07-13T02:53:36;15.70;99.90
52919;DHT22;38793;52.690;6.812;2023-07-13T02:56:02;15.60;99.90
52919;DHT22;38793;52.690;6.812;2023-07-13T02:58:28;15.60;99.90
52919;DHT22;38793;52.690;6.812;2023-07-13T03:00:55;15.60;99.90
52919;DHT22;38793;52.690;6.812;2023-07-13T03:03:21;15.60;99.90
52919;DHT22;38793;52.690;6.812;2023-07-13T03:05:47;15.60;99.90
52919;DHT22;38793;52.690;6.812;2023-07-13T03:08:16;15.60;99.90
52919;DHT22;38793;52.690;6.812;2023-07-13T03:10:43;15.60;99.90
52919;DHT22;38793;52.690;6.812;2023-07-13T03:13:09;15.50;99.90
52919;DHT22;38793;52.690;6.812;2023-07-13T03:15:34;15.50;99.90
52919;DHT22;38793;52.690;6.812;2023-07-13T03:18:00;15.50;99.90
52919;DHT22;38793;52.690;6.812;2023-07-13T03:20:25;15.50;99.90
52919;DHT22;38793;52.690;6.812;2023-07-13T03:22:51;15.50;99.90
52919;DHT22;38793;52.690;6.812;2023-07-13T03:25:17;15.50;99.90
52919;DHT22;38793;52.690;6.812;2023-07-13T03:27:42;15.40;99.90
52919;DHT22;38793;52.690;6.812;2023-07-13T03:30:08;15.50;99.90
52919;DHT22;38793;52.690;6.812;2023-07-13T03:32:34;15.40;99.90
52919;DHT22;38793;52.690;6.812;2023-07-13T03:35:00;15.40;99.90
52919;DHT22;38793;52.690;6.812;2023-07-13T03:37:26;15.40;99.90
52919;DHT22;38793;52.690;6.812;2023-07-13T03:39:52;15.40;99.90
52919;DHT22;38793;52.690;6.812;2023-07-13T03:42:17;15.30;99.90
52919;DHT22;38793;52.690;6.812;2023-07-13T03:44:43;15.40;99.90
52919;DHT22;38793;52.690;6.812;2023-07-13T03:47:17;15.40;99.90
52919;DHT22;38793;52.690;6.812;2023-07-13T03:49:43;15.30;99.90
52919;DHT22;38793;52.690;6.812;2023-07-13T03:52:08;15.30;99.90
52919;DHT22;38793;52.690;6.812;2023-07-13T03:54:34;15.30;99.90
52919;DHT22;38793;52.690;6.812;2023-07-13T03:57:00;15.30;99.90
52919;DHT22;38793;52.690;6.812;2023-07-13T03:59:25;15.30;99.90
52919;DHT22;38793;52.690;6.812;2023-07-13T04:01:51;15.30;99.90
52919;DHT22;38793;52.690;6.812;2023-07-13T04:04:16;15.30;99.90
52919;DHT22;38793;52.690;6.812;2023-07-13T04:06:42;15.30;99.90
52919;DHT22;38793;52.690;6.812;2023-07-13T04:09:08;15.30;99.90
52919;DHT22;38793;52.690;6.812;2023-07-13T04:11:34;15.20;99.90
52919;DHT22;38793;52.690;6.812;2023-07-13T04:14:02;15.20;99.90
52919;DHT22;38793;52.690;6.812;2023-07-13T04:16:28;15.20;99.90
52919;DHT22;38793;52.690;6.812;2023-07-13T04:18:55;15.20;99.90
52919;DHT22;38793;52.690;6.812;2023-07-13T04:21:28;15.20;99.90
52919;DHT22;38793;52.690;6.812;2023-07-13T04:23:54;15.10;99.90
52919;DHT22;38793;52.690;6.812;2023-07-13T04:26:20;15.10;99.90
52919;DHT22;38793;52.690;6.812;2023-07-13T04:28:47;15.00;99.90
52919;DHT22;38793;52.690;6.812;2023-07-13T04:31:12;15.00;99.90
52919;DHT22;38793;52.690;6.812;2023-07-13T04:33:38;15.00;99.90
52919;DHT22;38793;52.690;6.812;2023-07-13T04:36:04;15.10;99.90
52919;DHT22;38793;52.690;6.812;2023-07-13T04:38:31;15.10;99.90
52919;DHT22;38793;52.690;6.812;2023-07-13T04:41:05;15.10;99.90
52919;DHT22;38793;52.690;6.812;2023-07-13T04:43:32;15.20;99.90
52919;DHT22;38793;52.690;6.812;2023-07-13T04:46:07;15.20;99.90
52919;DHT22;38793;52.690;6.812;2023-07-13T04:48:33;15.20;99.90
52919;DHT22;38793;52.690;6.812;2023-07-13T04:50:59;15.20;99.90
52919;DHT22;38793;52.690;6.812;2023-07-13T04:53:25;15.20;99.90
52919;DHT22;38793;52.690;6.812;2023-07-13T04:55:51;15.20;99.90
52919;DHT22;38793;52.690;6.812;2023-07-13T04:58:17;15.20;99.90
52919;DHT22;38793;52.690;6.812;2023-07-13T05:00:42;15.20;99.90
52919;DHT22;38793;52.690;6.812;2023-07-13T05:03:08;15.30;99.90
52919;DHT22;38793;52.690;6.812;2023-07-13T05:05:34;15.30;99.90
52919;DHT22;38793;52.690;6.812;2023-07-13T05:08:00;15.30;99.90
52919;DHT22;38793;52.690;6.812;2023-07-13T05:10:26;15.40;99.90
52919;DHT22;38793;52.690;6.812;2023-07-13T05:12:51;15.50;99.90
52919;DHT22;38793;52.690;6.812;2023-07-13T05:15:22;15.60;99.90
52919;DHT22;38793;52.690;6.812;2023-07-13T05:17:49;15.70;99.90
52919;DHT22;38793;52.690;6.812;2023-07-13T05:20:16;15.80;99.90
52919;DHT22;38793;52.690;6.812;2023-07-13T05:22:42;15.90;99.90
52919;DHT22;38793;52.690;6.812;2023-07-13T05:25:08;16.00;99.90
52919;DHT22;38793;52.690;6.812;2023-07-13T05:27:35;16.00;99.90
52919;DHT22;38793;52.690;6.812;2023-07-13T05:30:02;16.10;99.90
52919;DHT22;38793;52.690;6.812;2023-07-13T05:32:28;16.20;99.90
52919;DHT22;38793;52.690;6.812;2023-07-13T05:34:54;16.20;99.90
52919;DHT22;38793;52.690;6.812;2023-07-13T05:37:19;16.30;99.90
52919;DHT22;38793;52.690;6.812;2023-07-13T05:39:45;16.30;99.90
52919;DHT22;38793;52.690;6.812;2023-07-13T05:42:10;16.40;99.90
52919;DHT22;38793;52.690;6.812;2023-07-13T05:44:36;16.50;99.90
52919;DHT22;38793;52.690;6.812;2023-07-13T05:47:02;16.60;99.90
52919;DHT22;38793;52.690;6.812;2023-07-13T05:49:28;16.60;99.90
52919;DHT22;38793;52.690;6.812;2023-07-13T05:51:55;16.70;99.90
52919;DHT22;38793;52.690;6.812;2023-07-13T05:54:21;16.70;99.90
52919;DHT22;38793;52.690;6.812;2023-07-13T05:56:47;16.80;99.90
52919;DHT22;38793;52.690;6.812;2023-07-13T05:59:12;16.90;99.90
52919;DHT22;38793;52.690;6.812;2023-07-13T06:01:38;17.00;99.90
52919;DHT22;38793;52.690;6.812;2023-07-13T06:04:03;17.00;99.90
52919;DHT22;38793;52.690;6.812;2023-07-13T06:06:30;17.10;99.90
52919;DHT22;38793;52.690;6.812;2023-07-13T06:08:55;17.20;99.90
52919;DHT22;38793;52.690;6.812;2023-07-13T06:11:23;17.20;99.90
52919;DHT22;38793;52.690;6.812;2023-07-13T06:13:49;17.30;99.90
52919;DHT22;38793;52.690;6.812;2023-07-13T06:16:15;17.30;99.90
52919;DHT22;38793;52.690;6.812;2023-07-13T06:18:41;17.40;99.90
52919;DHT22;38793;52.690;6.812;2023-07-13T06:21:09;17.50;99.90
52919;DHT22;38793;52.690;6.812;2023-07-13T06:23:35;17.50;99.90
52919;DHT22;38793;52.690;6.812;2023-07-13T06:26:02;17.60;99.90
52919;DHT22;38793;52.690;6.812;2023-07-13T06:28:28;17.70;99.90
52919;DHT22;38793;52.690;6.812;2023-07-13T06:30:54;17.70;99.90
52919;DHT22;38793;52.690;6.812;2023-07-13T06:33:20;17.80;99.90
52919;DHT22;38793;52.690;6.812;2023-07-13T06:35:45;17.90;99.90
52919;DHT22;38793;52.690;6.812;2023-07-13T06:38:11;18.00;99.90
52919;DHT22;38793;52.690;6.812;2023-07-13T06:40:36;18.00;99.90
52919;DHT22;38793;52.690;6.812;2023-07-13T06:43:02;18.10;99.90
52919;DHT22;38793;52.690;6.812;2023-07-13T06:45:27;18.20;99.90
52919;DHT22;38793;52.690;6.812;2023-07-13T06:47:53;18.30;99.90
52919;DHT22;38793;52.690;6.812;2023-07-13T06:50:18;18.40;99.90
52919;DHT22;38793;52.690;6.812;2023-07-13T06:52:44;18.50;99.90
52919;DHT22;38793;52.690;6.812;2023-07-13T06:55:10;18.50;99.90
52919;DHT22;38793;52.690;6.812;2023-07-13T06:57:35;18.50;99.90
52919;DHT22;38793;52.690;6.812;2023-07-13T07:00:01;18.60;99.90
52919;DHT22;38793;52.690;6.812;2023-07-13T07:02:26;18.70;99.90
52919;DHT22;38793;52.690;6.812;2023-07-13T07:04:52;18.80;99.90
52919;DHT22;38793;52.690;6.812;2023-07-13T07:07:19;18.90;99.90
52919;DHT22;38793;52.690;6.812;2023-07-13T07:09:45;19.00;99.90
52919;DHT22;38793;52.690;6.812;2023-07-13T07:12:10;19.10;99.90
52919;DHT22;38793;52.690;6.812;2023-07-13T07:14:36;19.00;99.90
52919;DHT22;38793;52.690;6.812;2023-07-13T07:17:01;19.00;99.90
52919;DHT22;38793;52.690;6.812;2023-07-13T07:19:29;19.00;99.90
52919;DHT22;38793;52.690;6.812;2023-07-13T07:21:55;19.10;99.90
52919;DHT22;38793;52.690;6.812;2023-07-13T07:24:20;19.10;99.90
52919;DHT22;38793;52.690;6.812;2023-07-13T07:26:46;19.10;99.90
52919;DHT22;38793;52.690;6.812;2023-07-13T07:29:11;19.10;99.90
52919;DHT22;38793;52.690;6.812;2023-07-13T07:31:37;19.10;99.90
52919;DHT22;38793;52.690;6.812;2023-07-13T07:34:03;19.00;99.90
52919;DHT22;38793;52.690;6.812;2023-07-13T07:36:28;18.90;99.90
52919;DHT22;38793;52.690;6.812;2023-07-13T07:38:54;19.00;99.90
52919;DHT22;38793;52.690;6.812;2023-07-13T07:41:19;18.90;99.90
52919;DHT22;38793;52.690;6.812;2023-07-13T07:43:45;18.90;99.90
52919;DHT22;38793;52.690;6.812;2023-07-13T07:46:11;18.90;99.90
52919;DHT22;38793;52.690;6.812;2023-07-13T07:48:36;18.90;99.90
52919;DHT22;38793;52.690;6.812;2023-07-13T07:51:02;18.80;99.90
52919;DHT22;38793;52.690;6.812;2023-07-13T07:53:27;18.80;99.90
52919;DHT22;38793;52.690;6.812;2023-07-13T07:55:53;18.80;99.90
52919;DHT22;38793;52.690;6.812;2023-07-13T07:58:19;18.90;99.90
52919;DHT22;38793;52.690;6.812;2023-07-13T08:00:44;18.80;99.90
52919;DHT22;38793;52.690;6.812;2023-07-13T08:03:10;18.90;99.90
52919;DHT22;38793;52.690;6.812;2023-07-13T08:05:36;18.90;99.90
52919;DHT22;38793;52.690;6.812;2023-07-13T08:08:02;19.00;99.90
52919;DHT22;38793;52.690;6.812;2023-07-13T08:10:28;19.10;99.90
52919;DHT22;38793;52.690;6.812;2023-07-13T08:12:54;19.10;99.90
52919;DHT22;38793;52.690;6.812;2023-07-13T08:15:20;19.00;99.90
52919;DHT22;38793;52.690;6.812;2023-07-13T08:17:47;19.10;99.90
52919;DHT22;38793;52.690;6.812;2023-07-13T08:20:13;19.10;99.90
52919;DHT22;38793;52.690;6.812;2023-07-13T08:22:39;19.20;99.90
52919;DHT22;38793;52.690;6.812;2023-07-13T08:25:05;19.20;99.90
52919;DHT22;38793;52.690;6.812;2023-07-13T08:27:30;19.30;99.90
52919;DHT22;38793;52.690;6.812;2023-07-13T08:29:56;19.30;99.90
52919;DHT22;38793;52.690;6.812;2023-07-13T08:32:23;19.40;99.90
52919;DHT22;38793;52.690;6.812;2023-07-13T08:34:49;19.40;99.90
52919;DHT22;38793;52.690;6.812;2023-07-13T08:37:15;19.50;99.90
52919;DHT22;38793;52.690;6.812;2023-07-13T08:39:41;19.50;99.90
52919;DHT22;38793;52.690;6.812;2023-07-13T08:45:07;19.50;99.90
52919;DHT22;38793;52.690;6.812;2023-07-13T08:47:41;19.50;99.90
52919;DHT22;38793;52.690;6.812;2023-07-13T08:50:17;19.40;99.90
52919;DHT22;38793;52.690;6.812;2023-07-13T08:52:44;19.40;99.90
52919;DHT22;38793;52.690;6.812;2023-07-13T08:55:20;19.50;99.90
52919;DHT22;38793;52.690;6.812;2023-07-13T08:57:50;19.70;99.90
52919;DHT22;38793;52.690;6.812;2023-07-13T09:00:18;19.90;99.90
52919;DHT22;38793;52.690;6.812;2023-07-13T09:05:36;20.20;99.90
52919;DHT22;38793;52.690;6.812;2023-07-13T09:10:53;20.10;99.90
52919;DHT22;38793;52.690;6.812;2023-07-13T09:16:00;20.20;99.90
52919;DHT22;38793;52.690;6.812;2023-07-13T09:18:32;20.20;99.90
52919;DHT22;38793;52.690;6.812;2023-07-13T09:21:10;20.20;99.90
52919;DHT22;38793;52.690;6.812;2023-07-13T09:23:38;20.20;99.90
52919;DHT22;38793;52.690;6.812;2023-07-13T09:26:05;20.10;99.90
52919;DHT22;38793;52.690;6.812;2023-07-13T09:28:38;20.00;99.90
52919;DHT22;38793;52.690;6.812;2023-07-13T09:31:09;19.90;99.90
52919;DHT22;38793;52.690;6.812;2023-07-13T09:33:38;19.70;99.90
52919;DHT22;38793;52.690;6.812;2023-07-13T09:36:21;19.30;99.90
52919;DHT22;38793;52.690;6.812;2023-07-13T09:46:32;17.40;99.90
52919;DHT22;38793;52.690;6.812;2023-07-13T09:48:57;17.10;99.90
52919;DHT22;38793;52.690;6.812;2023-07-13T09:51:23;16.80;99.90
52919;DHT22;38793;52.690;6.812;2023-07-13T09:53:49;16.70;99.90
52919;DHT22;38793;52.690;6.812;2023-07-13T09:56:23;16.70;99.90
52919;DHT22;38793;52.690;6.812;2023-07-13T09:58:49;16.70;99.90
52919;DHT22;38793;52.690;6.812;2023-07-13T10:01:15;16.70;99.90
52919;DHT22;38793;52.690;6.812;2023-07-13T10:03:52;16.80;99.90
52919;DHT22;38793;52.690;6.812;2023-07-13T10:06:20;16.90;99.90
52919;DHT22;38793;52.690;6.812;2023-07-13T10:08:50;17.10;99.90
52919;DHT22;38793;52.690;6.812;2023-07-13T10:11:27;17.20;99.90
52919;DHT22;38793;52.690;6.812;2023-07-13T10:14:01;17.50;99.90
52919;DHT22;38793;52.690;6.812;2023-07-13T10:16:33;17.60;99.90
52919;DHT22;38793;52.690;6.812;2023-07-13T10:19:23;17.70;99.90
52919;DHT22;38793;52.690;6.812;2023-07-13T10:21:57;17.70;99.90
52919;DHT22;38793;52.690;6.812;2023-07-13T10:24:27;17.90;99.90
52919;DHT22;38793;52.690;6.812;2023-07-13T10:27:03;18.00;99.90
52919;DHT22;38793;52.690;6.812;2023-07-13T10:29:35;18.30;99.90
52919;DHT22;38793;52.690;6.812;2023-07-13T10:32:02;18.50;99.90
52919;DHT22;38793;52.690;6.812;2023-07-13T10:34:28;18.60;99.90
52919;DHT22;38793;52.690;6.812;2023-07-13T10:36:54;18.70;99.90
52919;DHT22;38793;52.690;6.812;2023-07-13T10:39:26;18.90;99.90
52919;DHT22;38793;52.690;6.812;2023-07-13T10:41:57;19.10;99.90
52919;DHT22;38793;52.690;6.812;2023-07-13T10:44:28;19.20;99.90
52919;DHT22;38793;52.690;6.812;2023-07-13T10:47:02;19.40;99.90
52919;DHT22;38793;52.690;6.812;2023-07-13T10:49:31;19.60;99.90
52919;DHT22;38793;52.690;6.812;2023-07-13T10:51:57;19.80;99.90
52919;DHT22;38793;52.690;6.812;2023-07-13T10:54:31;19.90;99.90
52919;DHT22;38793;52.690;6.812;2023-07-13T10:57:19;20.00;99.90
52919;DHT22;38793;52.690;6.812;2023-07-13T11:00:14;20.00;99.90
52919;DHT22;38793;52.690;6.812;2023-07-13T11:02:40;19.90;99.90
52919;DHT22;38793;52.690;6.812;2023-07-13T11:08:19;19.80;99.90
52919;DHT22;38793;52.690;6.812;2023-07-13T11:10:55;19.80;99.90
52919;DHT22;38793;52.690;6.812;2023-07-13T11:13:57;19.70;99.90
52919;DHT22;38793;52.690;6.812;2023-07-13T11:19:18;19.60;99.90
52919;DHT22;38793;52.690;6.812;2023-07-13T11:24:49;19.10;99.90
52919;DHT22;38793;52.690;6.812;2023-07-13T11:30:24;18.40;99.90
52919;DHT22;38793;52.690;6.812;2023-07-13T11:35:53;17.90;99.90
52919;DHT22;38793;52.690;6.812;2023-07-13T11:38:28;17.80;99.90
52919;DHT22;38793;52.690;6.812;2023-07-13T11:40:55;17.90;99.90
52919;DHT22;38793;52.690;6.812;2023-07-13T11:43:23;17.90;99.90
52919;DHT22;38793;52.690;6.812;2023-07-13T11:45:50;17.90;99.90
52919;DHT22;38793;52.690;6.812;2023-07-13T11:48:23;18.00;99.90
52919;DHT22;38793;52.690;6.812;2023-07-13T11:50:55;18.20;99.90
52919;DHT22;38793;52.690;6.812;2023-07-13T11:53:21;18.30;99.90
52919;DHT22;38793;52.690;6.812;2023-07-13T11:55:47;18.40;99.90
52919;DHT22;38793;52.690;6.812;2023-07-13T11:58:19;18.60;99.90
52919;DHT22;38793;52.690;6.812;2023-07-13T12:00:46;18.80;99.90
52919;DHT22;38793;52.690;6.812;2023-07-13T12:03:12;18.90;99.90
52919;DHT22;38793;52.690;6.812;2023-07-13T12:08:23;19.10;99.90
52919;DHT22;38793;52.690;6.812;2023-07-13T12:10:56;19.20;99.90
52919;DHT22;38793;52.690;6.812;2023-07-13T12:13:22;19.40;99.90
52919;DHT22;38793;52.690;6.812;2023-07-13T12:15:48;19.50;99.90
52919;DHT22;38793;52.690;6.812;2023-07-13T12:18:17;19.70;99.90
52919;DHT22;38793;52.690;6.812;2023-07-13T12:20:44;19.70;99.90
52919;DHT22;38793;52.690;6.812;2023-07-13T12:23:23;19.80;99.90
52919;DHT22;38793;52.690;6.812;2023-07-13T12:25:51;19.90;99.90
52919;DHT22;38793;52.690;6.812;2023-07-13T12:28:35;20.10;99.90
52919;DHT22;38793;52.690;6.812;2023-07-13T12:31:05;20.20;99.90
52919;DHT22;38793;52.690;6.812;2023-07-13T12:33:33;20.30;99.90
52919;DHT22;38793;52.690;6.812;2023-07-13T12:36:03;20.40;99.90
52919;DHT22;38793;52.690;6.812;2023-07-13T12:38:32;20.50;99.90
52919;DHT22;38793;52.690;6.812;2023-07-13T12:40:58;20.50;99.90
52919;DHT22;38793;52.690;6.812;2023-07-13T12:43:23;20.50;99.90
52919;DHT22;38793;52.690;6.812;2023-07-13T12:46:24;20.50;99.90
52919;DHT22;38793;52.690;6.812;2023-07-13T12:48:53;20.70;99.90
52919;DHT22;38793;52.690;6.812;2023-07-13T12:51:22;20.80;99.90
52919;DHT22;38793;52.690;6.812;2023-07-13T12:54:05;20.90;99.90
52919;DHT22;38793;52.690;6.812;2023-07-13T12:56:33;21.00;99.90
52919;DHT22;38793;52.690;6.812;2023-07-13T12:59:03;21.00;99.90
52919;DHT22;38793;52.690;6.812;2023-07-13T13:01:31;21.10;99.90
52919;DHT22;38793;52.690;6.812;2023-07-13T13:04:01;21.10;99.90
52919;DHT22;38793;52.690;6.812;2023-07-13T13:06:29;21.30;99.90
52919;DHT22;38793;52.690;6.812;2023-07-13T13:08:56;21.40;99.90
52919;DHT22;38793;52.690;6.812;2023-07-13T13:11:24;21.50;99.90
52919;DHT22;38793;52.690;6.812;2023-07-13T13:13:51;21.60;99.90
52919;DHT22;38793;52.690;6.812;2023-07-13T13:18:54;21.70;99.90
52919;DHT22;38793;52.690;6.812;2023-07-13T13:21:20;21.70;99.90
52919;DHT22;38793;52.690;6.812;2023-07-13T13:23:46;21.70;99.90
52919;DHT22;38793;52.690;6.812;2023-07-13T13:26:13;21.80;99.90
52919;DHT22;38793;52.690;6.812;2023-07-13T13:28:39;22.00;99.90
52919;DHT22;38793;52.690;6.812;2023-07-13T13:31:04;22.20;99.90
52919;DHT22;38793;52.690;6.812;2023-07-13T13:33:30;22.30;99.90
52919;DHT22;38793;52.690;6.812;2023-07-13T13:35:56;22.30;99.80
52919;DHT22;38793;52.690;6.812;2023-07-13T13:38:26;22.40;99.10
52919;DHT22;38793;52.690;6.812;2023-07-13T13:40:52;22.40;98.70
52919;DHT22;38793;52.690;6.812;2023-07-13T13:43:22;22.30;98.90
52919;DHT22;38793;52.690;6.812;2023-07-13T13:45:52;22.30;99.90
52919;DHT22;38793;52.690;6.812;2023-07-13T13:48:24;22.40;99.80
52919;DHT22;38793;52.690;6.812;2023-07-13T13:50:56;22.50;99.60
52919;DHT22;38793;52.690;6.812;2023-07-13T13:53:22;22.60;99.60
52919;DHT22;38793;52.690;6.812;2023-07-13T13:55:49;22.70;99.20
52919;DHT22;38793;52.690;6.812;2023-07-13T13:58:15;22.80;99.20
52919;DHT22;38793;52.690;6.812;2023-07-13T14:00:40;22.90;98.90
52919;DHT22;38793;52.690;6.812;2023-07-13T14:03:17;23.00;98.50
52919;DHT22;38793;52.690;6.812;2023-07-13T14:05:43;23.20;98.40
52919;DHT22;38793;52.690;6.812;2023-07-13T14:08:14;23.20;98.10
52919;DHT22;38793;52.690;6.812;2023-07-13T14:10:40;23.30;97.90
52919;DHT22;38793;52.690;6.812;2023-07-13T14:13:07;23.40;97.90
52919;DHT22;38793;52.690;6.812;2023-07-13T14:15:40;23.50;97.30
52919;DHT22;38793;52.690;6.812;2023-07-13T14:18:07;23.60;96.50
52919;DHT22;38793;52.690;6.812;2023-07-13T14:20:33;23.40;96.60
52919;DHT22;38793;52.690;6.812;2023-07-13T14:22:59;23.40;97.20
52919;DHT22;38793;52.690;6.812;2023-07-13T14:25:25;23.40;96.40
52919;DHT22;38793;52.690;6.812;2023-07-13T14:27:53;23.40;96.20
52919;DHT22;38793;52.690;6.812;2023-07-13T14:30:22;23.40;95.80
52919;DHT22;38793;52.690;6.812;2023-07-13T14:32:48;23.40;96.20
52919;DHT22;38793;52.690;6.812;2023-07-13T14:35:16;23.40;96.00
52919;DHT22;38793;52.690;6.812;2023-07-13T14:37:43;23.40;95.50
52919;DHT22;38793;52.690;6.812;2023-07-13T14:42:38;23.20;95.60
52919;DHT22;38793;52.690;6.812;2023-07-13T14:45:04;23.30;95.40
52919;DHT22;38793;52.690;6.812;2023-07-13T14:47:30;23.30;95.10
52919;DHT22;38793;52.690;6.812;2023-07-13T14:49:56;23.30;95.70
52919;DHT22;38793;52.690;6.812;2023-07-13T14:52:23;23.40;95.10
52919;DHT22;38793;52.690;6.812;2023-07-13T14:54:49;23.40;95.30
52919;DHT22;38793;52.690;6.812;2023-07-13T14:57:19;23.50;95.00
52919;DHT22;38793;52.690;6.812;2023-07-13T14:59:46;23.50;95.30
52919;DHT22;38793;52.690;6.812;2023-07-13T15:04:42;23.40;94.70
52919;DHT22;38793;52.690;6.812;2023-07-13T15:07:12;23.20;94.70
52919;DHT22;38793;52.690;6.812;2023-07-13T15:09:41;23.20;94.90
52919;DHT22;38793;52.690;6.812;2023-07-13T15:12:07;23.30;95.30
52919;DHT22;38793;52.690;6.812;2023-07-13T15:14:33;23.30;95.10
52919;DHT22;38793;52.690;6.812;2023-07-13T15:16:58;23.30;94.90
52919;DHT22;38793;52.690;6.812;2023-07-13T15:19:25;23.20;95.00
52919;DHT22;38793;52.690;6.812;2023-07-13T15:21:51;23.20;94.70
52919;DHT22;38793;52.690;6.812;2023-07-13T15:24:19;23.10;94.50
52919;DHT22;38793;52.690;6.812;2023-07-13T15:26:46;23.10;95.00
52919;DHT22;38793;52.690;6.812;2023-07-13T15:29:14;23.10;95.00
52919;DHT22;38793;52.690;6.812;2023-07-13T15:31:40;23.20;95.20
52919;DHT22;38793;52.690;6.812;2023-07-13T15:34:19;23.20;94.60
52919;DHT22;38793;52.690;6.812;2023-07-13T15:36:46;23.10;94.20
52919;DHT22;38793;52.690;6.812;2023-07-13T15:39:15;23.10;94.40
52919;DHT22;38793;52.690;6.812;2023-07-13T15:41:42;23.10;94.50
52919;DHT22;38793;52.690;6.812;2023-07-13T15:44:29;23.10;94.30
52919;DHT22;38793;52.690;6.812;2023-07-13T15:46:56;23.10;94.00
52919;DHT22;38793;52.690;6.812;2023-07-13T15:49:21;23.10;94.60
52919;DHT22;38793;52.690;6.812;2023-07-13T15:51:48;23.00;94.70
52919;DHT22;38793;52.690;6.812;2023-07-13T15:54:15;22.90;94.20
52919;DHT22;38793;52.690;6.812;2023-07-13T15:56:42;22.90;94.90
52919;DHT22;38793;52.690;6.812;2023-07-13T15:59:11;22.90;94.70
52919;DHT22;38793;52.690;6.812;2023-07-13T16:01:38;22.90;94.70
52919;DHT22;38793;52.690;6.812;2023-07-13T16:04:05;22.90;94.70
52919;DHT22;38793;52.690;6.812;2023-07-13T16:06:35;22.80;94.80
52919;DHT22;38793;52.690;6.812;2023-07-13T16:09:03;22.90;94.60
52919;DHT22;38793;52.690;6.812;2023-07-13T16:11:36;22.90;94.80
52919;DHT22;38793;52.690;6.812;2023-07-13T16:14:02;22.80;94.60
52919;DHT22;38793;52.690;6.812;2023-07-13T16:16:29;22.80;94.80
52919;DHT22;38793;52.690;6.812;2023-07-13T16:18:56;22.70;94.70